sensor_id;sensor_type;location;lat;lon;timestamp;P1;durP1;ratioP1;P2;durP2;ratioP2
51190;SDS011;37253;48.736;9.294;2022-07-03T00:01:23;8.15;;;2.30;;
51190;SDS011;37253;48.736;9.294;2022-07-03T00:03:24;6.38;;;1.77;;
51190;SDS011;37253;48.736;9.294;2022-07-03T00:05:25;6.50;;;1.85;;
51190;SDS011;37253;48.736;9.294;2022-07-03T00:07:25;3.22;;;1.75;;
51190;SDS011;37253;48.736;9.294;2022-07-03T00:09:25;7.22;;;1.98;;
51190;SDS011;37253;48.736;9.294;2022-07-03T00:11:26;9.05;;;2.08;;
51190;SDS011;37253;48.736;9.294;2022-07-03T00:13:26;5.55;;;1.70;;
51190;SDS011;37253;48.736;9.294;2022-07-03T00:15:27;7.72;;;2.00;;
51190;SDS011;37253;48.736;9.294;2022-07-03T00:17:27;6.10;;;2.10;;
51190;SDS011;37253;48.736;9.294;2022-07-03T00:19:28;5.07;;;1.40;;
51190;SDS011;37253;48.736;9.294;2022-07-03T00:21:31;4.80;;;1.70;;
51190;SDS011;37253;48.736;9.294;2022-07-03T00:23:39;7.97;;;1.83;;
51190;SDS011;37253;48.736;9.294;2022-07-03T00:25:42;4.65;;;1.70;;
51190;SDS011;37253;48.736;9.294;2022-07-03T00:27:43;4.90;;;1.60;;
51190;SDS011;37253;48.736;9.294;2022-07-03T00:29:44;3.78;;;1.80;;
51190;SDS011;37253;48.736;9.294;2022-07-03T00:31:45;3.08;;;1.40;;
51190;SDS011;37253;48.736;9.294;2022-07-03T00:33:47;3.20;;;1.70;;
51190;SDS011;37253;48.736;9.294;2022-07-03T00:35:47;8.13;;;1.70;;
51190;SDS011;37253;48.736;9.294;2022-07-03T00:37:49;6.72;;;1.77;;
51190;SDS011;37253;48.736;9.294;2022-07-03T00:39:49;3.75;;;1.48;;
51190;SDS011;37253;48.736;9.294;2022-07-03T00:41:58;4.50;;;1.83;;
51190;SDS011;37253;48.736;9.294;2022-07-03T00:44:00;3.92;;;1.65;;
51190;SDS011;37253;48.736;9.294;2022-07-03T00:46:06;3.58;;;1.63;;
51190;SDS011;37253;48.736;9.294;2022-07-03T00:48:08;5.15;;;1.70;;
51190;SDS011;37253;48.736;9.294;2022-07-03T00:50:09;3.97;;;1.80;;
51190;SDS011;37253;48.736;9.294;2022-07-03T00:52:09;5.45;;;1.63;;
51190;SDS011;37253;48.736;9.294;2022-07-03T00:54:11;2.90;;;1.40;;
51190;SDS011;37253;48.736;9.294;2022-07-03T00:56:14;3.08;;;1.55;;
51190;SDS011;37253;48.736;9.294;2022-07-03T00:58:16;3.42;;;1.58;;
51190;SDS011;37253;48.736;9.294;2022-07-03T01:00:17;5.38;;;1.65;;
51190;SDS011;37253;48.736;9.294;2022-07-03T01:02:30;4.60;;;1.50;;
51190;SDS011;37253;48.736;9.294;2022-07-03T01:10:00;4.10;;;1.60;;
51190;SDS011;37253;48.736;9.294;2022-07-03T01:12:07;6.70;;;2.13;;
51190;SDS011;37253;48.736;9.294;2022-07-03T01:16:41;5.82;;;1.80;;
51190;SDS011;37253;48.736;9.294;2022-07-03T01:18:48;7.35;;;1.42;;
51190;SDS011;37253;48.736;9.294;2022-07-03T01:21:08;2.88;;;1.55;;
51190;SDS011;37253;48.736;9.294;2022-07-03T01:23:17;3.95;;;1.50;;
51190;SDS011;37253;48.736;9.294;2022-07-03T01:25:24;3.17;;;1.30;;
51190;SDS011;37253;48.736;9.294;2022-07-03T01:27:27;5.13;;;1.92;;
51190;SDS011;37253;48.736;9.294;2022-07-03T01:29:31;4.15;;;1.50;;
51190;SDS011;37253;48.736;9.294;2022-07-03T01:31:38;3.50;;;1.55;;
51190;SDS011;37253;48.736;9.294;2022-07-03T01:33:39;3.72;;;1.35;;
51190;SDS011;37253;48.736;9.294;2022-07-03T01:35:41;5.90;;;1.67;;
51190;SDS011;37253;48.736;9.294;2022-07-03T01:37:47;4.80;;;1.50;;
51190;SDS011;37253;48.736;9.294;2022-07-03T01:39:48;4.22;;;1.65;;
51190;SDS011;37253;48.736;9.294;2022-07-03T01:41:52;6.65;;;1.50;;
51190;SDS011;37253;48.736;9.294;2022-07-03T01:43:55;4.18;;;1.45;;
51190;SDS011;37253;48.736;9.294;2022-07-03T01:45:57;2.85;;;1.45;;
51190;SDS011;37253;48.736;9.294;2022-07-03T01:47:58;4.93;;;1.45;;
51190;SDS011;37253;48.736;9.294;2022-07-03T01:49:59;3.92;;;1.60;;
51190;SDS011;37253;48.736;9.294;2022-07-03T01:52:00;3.38;;;1.77;;
51190;SDS011;37253;48.736;9.294;2022-07-03T01:54:01;4.43;;;1.55;;
51190;SDS011;37253;48.736;9.294;2022-07-03T01:56:02;6.15;;;1.50;;
51190;SDS011;37253;48.736;9.294;2022-07-03T01:58:02;3.83;;;1.45;;
51190;SDS011;37253;48.736;9.294;2022-07-03T02:00:03;4.25;;;1.67;;
51190;SDS011;37253;48.736;9.294;2022-07-03T02:02:09;3.70;;;1.30;;
51190;SDS011;37253;48.736;9.294;2022-07-03T02:04:34;3.65;;;1.50;;
51190;SDS011;37253;48.736;9.294;2022-07-03T02:06:50;2.42;;;1.30;;
51190;SDS011;37253;48.736;9.294;2022-07-03T02:09:04;2.25;;;1.30;;
51190;SDS011;37253;48.736;9.294;2022-07-03T02:11:10;3.00;;;1.50;;
51190;SDS011;37253;48.736;9.294;2022-07-03T02:13:15;1.88;;;1.58;;
51190;SDS011;37253;48.736;9.294;2022-07-03T02:15:28;3.03;;;1.30;;
51190;SDS011;37253;48.736;9.294;2022-07-03T02:17:35;3.28;;;1.40;;
51190;SDS011;37253;48.736;9.294;2022-07-03T02:19:41;4.28;;;1.90;;
51190;SDS011;37253;48.736;9.294;2022-07-03T02:21:48;5.05;;;1.50;;
51190;SDS011;37253;48.736;9.294;2022-07-03T02:24:33;4.45;;;1.90;;
51190;SDS011;37253;48.736;9.294;2022-07-03T02:26:18;3.28;;;1.48;;
51190;SDS011;37253;48.736;9.294;2022-07-03T02:30:33;2.70;;;1.38;;
51190;SDS011;37253;48.736;9.294;2022-07-03T02:32:43;4.05;;;1.63;;
51190;SDS011;37253;48.736;9.294;2022-07-03T02:34:45;2.97;;;1.42;;
51190;SDS011;37253;48.736;9.294;2022-07-03T02:36:50;2.53;;;1.30;;
51190;SDS011;37253;48.736;9.294;2022-07-03T02:38:54;3.85;;;1.30;;
51190;SDS011;37253;48.736;9.294;2022-07-03T02:40:57;3.50;;;1.70;;
51190;SDS011;37253;48.736;9.294;2022-07-03T02:45:23;2.88;;;1.50;;
51190;SDS011;37253;48.736;9.294;2022-07-03T02:47:27;2.75;;;1.10;;
51190;SDS011;37253;48.736;9.294;2022-07-03T02:54:29;5.85;;;1.35;;
51190;SDS011;37253;48.736;9.294;2022-07-03T02:57:19;4.38;;;1.30;;
51190;SDS011;37253;48.736;9.294;2022-07-03T02:59:14;3.35;;;1.42;;
51190;SDS011;37253;48.736;9.294;2022-07-03T03:01:46;2.03;;;1.30;;
51190;SDS011;37253;48.736;9.294;2022-07-03T03:06:13;1.75;;;1.08;;
51190;SDS011;37253;48.736;9.294;2022-07-03T03:10:14;4.03;;;1.20;;
51190;SDS011;37253;48.736;9.294;2022-07-03T03:12:21;2.75;;;1.77;;
51190;SDS011;37253;48.736;9.294;2022-07-03T03:14:33;1.35;;;1.25;;
51190;SDS011;37253;48.736;9.294;2022-07-03T03:18:47;3.38;;;1.45;;
51190;SDS011;37253;48.736;9.294;2022-07-03T03:20:48;2.70;;;1.40;;
51190;SDS011;37253;48.736;9.294;2022-07-03T03:25:09;5.78;;;1.60;;
51190;SDS011;37253;48.736;9.294;2022-07-03T03:27:10;2.80;;;1.30;;
51190;SDS011;37253;48.736;9.294;2022-07-03T03:29:10;2.33;;;1.48;;
51190;SDS011;37253;48.736;9.294;2022-07-03T03:31:11;3.92;;;1.42;;
51190;SDS011;37253;48.736;9.294;2022-07-03T03:33:12;3.90;;;1.48;;
51190;SDS011;37253;48.736;9.294;2022-07-03T03:35:12;2.30;;;1.40;;
51190;SDS011;37253;48.736;9.294;2022-07-03T03:37:13;3.22;;;1.60;;
51190;SDS011;37253;48.736;9.294;2022-07-03T03:39:13;1.90;;;1.30;;
51190;SDS011;37253;48.736;9.294;2022-07-03T03:41:14;4.00;;;1.40;;
51190;SDS011;37253;48.736;9.294;2022-07-03T03:43:14;3.75;;;1.38;;
51190;SDS011;37253;48.736;9.294;2022-07-03T03:45:14;4.28;;;1.50;;
51190;SDS011;37253;48.736;9.294;2022-07-03T03:47:15;2.05;;;1.48;;
51190;SDS011;37253;48.736;9.294;2022-07-03T03:49:15;3.30;;;1.40;;
51190;SDS011;37253;48.736;9.294;2022-07-03T03:51:16;1.60;;;1.00;;
51190;SDS011;37253;48.736;9.294;2022-07-03T03:53:16;11.52;;;1.20;;
51190;SDS011;37253;48.736;9.294;2022-07-03T03:55:17;3.30;;;1.17;;
51190;SDS011;37253;48.736;9.294;2022-07-03T03:57:18;3.35;;;1.30;;
51190;SDS011;37253;48.736;9.294;2022-07-03T03:59:20;3.63;;;1.47;;
51190;SDS011;37253;48.736;9.294;2022-07-03T04:01:21;3.53;;;1.30;;
51190;SDS011;37253;48.736;9.294;2022-07-03T04:03:21;3.78;;;1.55;;
51190;SDS011;37253;48.736;9.294;2022-07-03T04:05:22;2.10;;;1.42;;
51190;SDS011;37253;48.736;9.294;2022-07-03T04:07:22;2.92;;;1.27;;
51190;SDS011;37253;48.736;9.294;2022-07-03T04:09:22;4.05;;;1.25;;
51190;SDS011;37253;48.736;9.294;2022-07-03T04:11:23;2.38;;;1.40;;
51190;SDS011;37253;48.736;9.294;2022-07-03T04:13:23;2.40;;;1.40;;
51190;SDS011;37253;48.736;9.294;2022-07-03T04:15:24;3.70;;;1.40;;
51190;SDS011;37253;48.736;9.294;2022-07-03T04:17:24;2.22;;;1.25;;
51190;SDS011;37253;48.736;9.294;2022-07-03T04:19:25;1.92;;;1.40;;
51190;SDS011;37253;48.736;9.294;2022-07-03T04:21:25;2.03;;;1.33;;
51190;SDS011;37253;48.736;9.294;2022-07-03T04:23:25;3.00;;;1.30;;
51190;SDS011;37253;48.736;9.294;2022-07-03T04:25:26;2.67;;;1.40;;
51190;SDS011;37253;48.736;9.294;2022-07-03T04:27:26;1.80;;;1.20;;
51190;SDS011;37253;48.736;9.294;2022-07-03T04:29:26;5.43;;;1.38;;
51190;SDS011;37253;48.736;9.294;2022-07-03T04:31:27;2.42;;;1.20;;
51190;SDS011;37253;48.736;9.294;2022-07-03T04:33:27;1.88;;;1.23;;
51190;SDS011;37253;48.736;9.294;2022-07-03T04:35:27;2.28;;;1.30;;
51190;SDS011;37253;48.736;9.294;2022-07-03T04:37:28;1.90;;;0.95;;
51190;SDS011;37253;48.736;9.294;2022-07-03T04:39:28;3.28;;;1.50;;
51190;SDS011;37253;48.736;9.294;2022-07-03T04:41:28;2.28;;;1.10;;
51190;SDS011;37253;48.736;9.294;2022-07-03T04:43:29;2.80;;;1.13;;
51190;SDS011;37253;48.736;9.294;2022-07-03T04:45:29;3.92;;;1.20;;
51190;SDS011;37253;48.736;9.294;2022-07-03T04:47:29;2.20;;;1.05;;
51190;SDS011;37253;48.736;9.294;2022-07-03T04:49:30;2.90;;;1.40;;
51190;SDS011;37253;48.736;9.294;2022-07-03T04:51:30;2.05;;;1.00;;
51190;SDS011;37253;48.736;9.294;2022-07-03T04:53:30;2.35;;;1.27;;
51190;SDS011;37253;48.736;9.294;2022-07-03T04:55:31;5.03;;;1.40;;
51190;SDS011;37253;48.736;9.294;2022-07-03T04:57:31;2.40;;;1.13;;
51190;SDS011;37253;48.736;9.294;2022-07-03T04:59:31;2.08;;;1.33;;
51190;SDS011;37253;48.736;9.294;2022-07-03T05:01:32;5.15;;;1.13;;
51190;SDS011;37253;48.736;9.294;2022-07-03T05:03:32;1.30;;;1.10;;
51190;SDS011;37253;48.736;9.294;2022-07-03T05:05:32;1.23;;;1.13;;
51190;SDS011;37253;48.736;9.294;2022-07-03T05:07:33;1.50;;;1.10;;
51190;SDS011;37253;48.736;9.294;2022-07-03T05:09:33;2.65;;;1.30;;
51190;SDS011;37253;48.736;9.294;2022-07-03T05:11:33;1.20;;;1.10;;
51190;SDS011;37253;48.736;9.294;2022-07-03T05:13:35;3.05;;;1.20;;
51190;SDS011;37253;48.736;9.294;2022-07-03T05:15:36;2.53;;;1.10;;
51190;SDS011;37253;48.736;9.294;2022-07-03T05:17:36;1.92;;;1.20;;
51190;SDS011;37253;48.736;9.294;2022-07-03T05:19:37;2.25;;;1.00;;
51190;SDS011;37253;48.736;9.294;2022-07-03T05:21:38;1.92;;;1.40;;
51190;SDS011;37253;48.736;9.294;2022-07-03T05:23:38;1.77;;;1.13;;
51190;SDS011;37253;48.736;9.294;2022-07-03T05:25:38;2.03;;;1.30;;
51190;SDS011;37253;48.736;9.294;2022-07-03T05:27:39;2.17;;;1.17;;
51190;SDS011;37253;48.736;9.294;2022-07-03T05:29:39;1.70;;;1.10;;
51190;SDS011;37253;48.736;9.294;2022-07-03T05:31:39;1.10;;;1.00;;
51190;SDS011;37253;48.736;9.294;2022-07-03T05:33:40;1.63;;;1.20;;
51190;SDS011;37253;48.736;9.294;2022-07-03T05:35:40;2.17;;;1.30;;
51190;SDS011;37253;48.736;9.294;2022-07-03T05:37:41;1.55;;;1.20;;
51190;SDS011;37253;48.736;9.294;2022-07-03T05:39:41;1.60;;;1.20;;
51190;SDS011;37253;48.736;9.294;2022-07-03T05:41:42;1.75;;;1.02;;
51190;SDS011;37253;48.736;9.294;2022-07-03T05:43:42;2.20;;;1.20;;
51190;SDS011;37253;48.736;9.294;2022-07-03T05:45:42;3.42;;;1.20;;
51190;SDS011;37253;48.736;9.294;2022-07-03T05:47:42;1.70;;;1.00;;
51190;SDS011;37253;48.736;9.294;2022-07-03T05:49:43;1.33;;;1.10;;
51190;SDS011;37253;48.736;9.294;2022-07-03T05:51:43;1.88;;;1.10;;
51190;SDS011;37253;48.736;9.294;2022-07-03T05:53:43;4.80;;;1.20;;
51190;SDS011;37253;48.736;9.294;2022-07-03T05:55:44;2.05;;;1.20;;
51190;SDS011;37253;48.736;9.294;2022-07-03T05:57:44;2.47;;;1.40;;
51190;SDS011;37253;48.736;9.294;2022-07-03T05:59:44;1.20;;;1.10;;
51190;SDS011;37253;48.736;9.294;2022-07-03T06:01:45;1.73;;;1.10;;
51190;SDS011;37253;48.736;9.294;2022-07-03T06:03:45;1.15;;;1.05;;
51190;SDS011;37253;48.736;9.294;2022-07-03T06:05:45;3.08;;;1.27;;
51190;SDS011;37253;48.736;9.294;2022-07-03T06:07:46;1.40;;;1.02;;
51190;SDS011;37253;48.736;9.294;2022-07-03T06:09:46;1.35;;;1.15;;
51190;SDS011;37253;48.736;9.294;2022-07-03T06:11:48;2.65;;;1.00;;
51190;SDS011;37253;48.736;9.294;2022-07-03T06:13:48;1.10;;;1.00;;
51190;SDS011;37253;48.736;9.294;2022-07-03T06:15:48;1.35;;;1.20;;
51190;SDS011;37253;48.736;9.294;2022-07-03T06:17:49;1.65;;;1.10;;
51190;SDS011;37253;48.736;9.294;2022-07-03T06:19:49;1.85;;;1.30;;
51190;SDS011;37253;48.736;9.294;2022-07-03T06:21:50;2.95;;;1.20;;
51190;SDS011;37253;48.736;9.294;2022-07-03T06:23:50;1.85;;;1.20;;
51190;SDS011;37253;48.736;9.294;2022-07-03T06:25:50;1.27;;;1.10;;
51190;SDS011;37253;48.736;9.294;2022-07-03T06:27:51;1.98;;;1.15;;
51190;SDS011;37253;48.736;9.294;2022-07-03T06:29:51;2.13;;;1.10;;
51190;SDS011;37253;48.736;9.294;2022-07-03T06:31:51;1.80;;;1.20;;
51190;SDS011;37253;48.736;9.294;2022-07-03T06:33:52;2.25;;;1.20;;
51190;SDS011;37253;48.736;9.294;2022-07-03T06:35:52;1.90;;;1.10;;
51190;SDS011;37253;48.736;9.294;2022-07-03T06:37:52;2.45;;;1.20;;
51190;SDS011;37253;48.736;9.294;2022-07-03T06:39:53;1.48;;;1.10;;
51190;SDS011;37253;48.736;9.294;2022-07-03T06:41:53;3.47;;;1.10;;
51190;SDS011;37253;48.736;9.294;2022-07-03T06:43:53;1.95;;;1.10;;
51190;SDS011;37253;48.736;9.294;2022-07-03T06:45:54;2.13;;;1.20;;
51190;SDS011;37253;48.736;9.294;2022-07-03T06:47:54;1.40;;;1.20;;
51190;SDS011;37253;48.736;9.294;2022-07-03T06:49:54;2.13;;;1.25;;
51190;SDS011;37253;48.736;9.294;2022-07-03T06:51:55;1.35;;;1.10;;
51190;SDS011;37253;48.736;9.294;2022-07-03T06:53:55;1.67;;;1.40;;
51190;SDS011;37253;48.736;9.294;2022-07-03T06:55:55;1.20;;;1.10;;
51190;SDS011;37253;48.736;9.294;2022-07-03T06:57:56;1.67;;;1.35;;
51190;SDS011;37253;48.736;9.294;2022-07-03T06:59:56;1.60;;;1.00;;
51190;SDS011;37253;48.736;9.294;2022-07-03T07:01:56;1.75;;;1.20;;
51190;SDS011;37253;48.736;9.294;2022-07-03T07:03:57;1.90;;;1.13;;
51190;SDS011;37253;48.736;9.294;2022-07-03T07:05:57;2.47;;;1.30;;
51190;SDS011;37253;48.736;9.294;2022-07-03T07:07:57;1.25;;;1.15;;
51190;SDS011;37253;48.736;9.294;2022-07-03T07:09:58;2.50;;;1.35;;
51190;SDS011;37253;48.736;9.294;2022-07-03T07:11:58;1.38;;;1.10;;
51190;SDS011;37253;48.736;9.294;2022-07-03T07:13:58;3.22;;;1.33;;
51190;SDS011;37253;48.736;9.294;2022-07-03T07:15:59;1.40;;;1.25;;
51190;SDS011;37253;48.736;9.294;2022-07-03T07:18:00;1.38;;;1.10;;
51190;SDS011;37253;48.736;9.294;2022-07-03T07:20:01;3.28;;;1.30;;
51190;SDS011;37253;48.736;9.294;2022-07-03T07:22:01;1.92;;;1.17;;
51190;SDS011;37253;48.736;9.294;2022-07-03T07:24:01;1.65;;;1.20;;
51190;SDS011;37253;48.736;9.294;2022-07-03T07:26:02;1.30;;;1.20;;
51190;SDS011;37253;48.736;9.294;2022-07-03T07:28:03;2.08;;;1.10;;
51190;SDS011;37253;48.736;9.294;2022-07-03T07:30:03;1.60;;;1.20;;
51190;SDS011;37253;48.736;9.294;2022-07-03T07:32:04;3.03;;;1.40;;
51190;SDS011;37253;48.736;9.294;2022-07-03T07:34:05;1.55;;;1.40;;
51190;SDS011;37253;48.736;9.294;2022-07-03T07:36:05;1.50;;;1.30;;
51190;SDS011;37253;48.736;9.294;2022-07-03T07:38:05;1.63;;;1.20;;
51190;SDS011;37253;48.736;9.294;2022-07-03T07:40:06;2.25;;;1.10;;
51190;SDS011;37253;48.736;9.294;2022-07-03T07:42:07;1.33;;;1.00;;
51190;SDS011;37253;48.736;9.294;2022-07-03T07:44:07;1.52;;;1.20;;
51190;SDS011;37253;48.736;9.294;2022-07-03T07:46:08;1.50;;;1.20;;
51190;SDS011;37253;48.736;9.294;2022-07-03T07:48:08;1.52;;;1.13;;
51190;SDS011;37253;48.736;9.294;2022-07-03T07:50:08;1.67;;;1.23;;
51190;SDS011;37253;48.736;9.294;2022-07-03T07:52:09;2.85;;;1.20;;
51190;SDS011;37253;48.736;9.294;2022-07-03T07:54:09;1.25;;;1.15;;
51190;SDS011;37253;48.736;9.294;2022-07-03T07:56:10;1.73;;;1.20;;
51190;SDS011;37253;48.736;9.294;2022-07-03T07:58:10;1.88;;;1.10;;
51190;SDS011;37253;48.736;9.294;2022-07-03T08:00:14;1.77;;;1.23;;
51190;SDS011;37253;48.736;9.294;2022-07-03T08:02:15;2.58;;;1.10;;
51190;SDS011;37253;48.736;9.294;2022-07-03T08:04:34;2.05;;;1.08;;
51190;SDS011;37253;48.736;9.294;2022-07-03T08:06:53;1.33;;;1.20;;
51190;SDS011;37253;48.736;9.294;2022-07-03T08:08:53;1.80;;;1.17;;
51190;SDS011;37253;48.736;9.294;2022-07-03T08:10:54;1.20;;;1.10;;
51190;SDS011;37253;48.736;9.294;2022-07-03T08:12:54;1.13;;;1.02;;
51190;SDS011;37253;48.736;9.294;2022-07-03T08:14:54;1.48;;;1.35;;
51190;SDS011;37253;48.736;9.294;2022-07-03T08:16:55;1.63;;;1.10;;
51190;SDS011;37253;48.736;9.294;2022-07-03T08:18:55;1.40;;;1.20;;
51190;SDS011;37253;48.736;9.294;2022-07-03T08:20:55;1.20;;;1.10;;
51190;SDS011;37253;48.736;9.294;2022-07-03T08:22:56;2.28;;;1.17;;
51190;SDS011;37253;48.736;9.294;2022-07-03T08:24:56;4.03;;;1.40;;
51190;SDS011;37253;48.736;9.294;2022-07-03T08:26:57;0.90;;;0.90;;
51190;SDS011;37253;48.736;9.294;2022-07-03T08:28:57;1.60;;;1.27;;
51190;SDS011;37253;48.736;9.294;2022-07-03T08:30:57;1.40;;;1.00;;
51190;SDS011;37253;48.736;9.294;2022-07-03T08:32:58;3.83;;;1.00;;
51190;SDS011;37253;48.736;9.294;2022-07-03T08:34:58;1.55;;;0.98;;
51190;SDS011;37253;48.736;9.294;2022-07-03T08:36:59;2.05;;;1.20;;
51190;SDS011;37253;48.736;9.294;2022-07-03T08:38:59;1.20;;;1.00;;
51190;SDS011;37253;48.736;9.294;2022-07-03T08:41:00;2.75;;;1.10;;
51190;SDS011;37253;48.736;9.294;2022-07-03T08:43:01;1.17;;;1.08;;
51190;SDS011;37253;48.736;9.294;2022-07-03T08:45:03;8.00;;;1.75;;
51190;SDS011;37253;48.736;9.294;2022-07-03T08:47:07;7.07;;;1.45;;
51190;SDS011;37253;48.736;9.294;2022-07-03T08:49:10;1.40;;;1.10;;
51190;SDS011;37253;48.736;9.294;2022-07-03T08:51:11;2.13;;;1.40;;
51190;SDS011;37253;48.736;9.294;2022-07-03T08:53:11;2.38;;;1.02;;
51190;SDS011;37253;48.736;9.294;2022-07-03T08:55:12;3.40;;;1.00;;
51190;SDS011;37253;48.736;9.294;2022-07-03T08:57:13;1.42;;;1.02;;
51190;SDS011;37253;48.736;9.294;2022-07-03T08:59:14;4.68;;;1.08;;
51190;SDS011;37253;48.736;9.294;2022-07-03T09:01:15;3.20;;;1.10;;
51190;SDS011;37253;48.736;9.294;2022-07-03T09:03:16;2.92;;;1.20;;
51190;SDS011;37253;48.736;9.294;2022-07-03T09:05:17;1.73;;;1.30;;
51190;SDS011;37253;48.736;9.294;2022-07-03T09:07:18;1.27;;;1.10;;
51190;SDS011;37253;48.736;9.294;2022-07-03T09:09:19;2.05;;;1.00;;
51190;SDS011;37253;48.736;9.294;2022-07-03T09:11:19;2.00;;;1.10;;
51190;SDS011;37253;48.736;9.294;2022-07-03T09:13:20;2.28;;;1.00;;
51190;SDS011;37253;48.736;9.294;2022-07-03T09:15:20;1.38;;;0.90;;
51190;SDS011;37253;48.736;9.294;2022-07-03T09:17:21;1.70;;;1.00;;
51190;SDS011;37253;48.736;9.294;2022-07-03T09:19:41;3.65;;;1.10;;
51190;SDS011;37253;48.736;9.294;2022-07-03T09:21:42;2.85;;;0.90;;
51190;SDS011;37253;48.736;9.294;2022-07-03T09:23:43;1.58;;;0.95;;
51190;SDS011;37253;48.736;9.294;2022-07-03T09:25:54;1.20;;;0.90;;
51190;SDS011;37253;48.736;9.294;2022-07-03T09:27:56;3.53;;;1.08;;
51190;SDS011;37253;48.736;9.294;2022-07-03T09:29:57;2.67;;;0.90;;
51190;SDS011;37253;48.736;9.294;2022-07-03T09:32:07;1.70;;;1.02;;
51190;SDS011;37253;48.736;9.294;2022-07-03T09:34:08;2.70;;;1.10;;
51190;SDS011;37253;48.736;9.294;2022-07-03T09:36:08;1.77;;;1.40;;
51190;SDS011;37253;48.736;9.294;2022-07-03T09:38:08;1.98;;;1.30;;
51190;SDS011;37253;48.736;9.294;2022-07-03T09:40:09;2.00;;;1.40;;
51190;SDS011;37253;48.736;9.294;2022-07-03T09:42:09;3.63;;;1.50;;
51190;SDS011;37253;48.736;9.294;2022-07-03T09:44:19;4.65;;;1.42;;
51190;SDS011;37253;48.736;9.294;2022-07-03T09:46:28;2.45;;;1.30;;
51190;SDS011;37253;48.736;9.294;2022-07-03T09:48:32;1.38;;;1.25;;
51190;SDS011;37253;48.736;9.294;2022-07-03T09:50:33;2.33;;;1.20;;
51190;SDS011;37253;48.736;9.294;2022-07-03T09:54:44;2.47;;;1.60;;
51190;SDS011;37253;48.736;9.294;2022-07-03T09:56:45;2.47;;;1.58;;
51190;SDS011;37253;48.736;9.294;2022-07-03T10:01:15;2.53;;;1.50;;
51190;SDS011;37253;48.736;9.294;2022-07-03T10:03:17;2.85;;;1.30;;
51190;SDS011;37253;48.736;9.294;2022-07-03T10:05:21;5.32;;;1.40;;
51190;SDS011;37253;48.736;9.294;2022-07-03T10:07:23;1.50;;;1.30;;
51190;SDS011;37253;48.736;9.294;2022-07-03T10:09:24;17.70;;;2.88;;
51190;SDS011;37253;48.736;9.294;2022-07-03T10:11:26;9.88;;;2.10;;
51190;SDS011;37253;48.736;9.294;2022-07-03T10:13:27;12.30;;;2.42;;
51190;SDS011;37253;48.736;9.294;2022-07-03T10:15:28;5.28;;;1.52;;
51190;SDS011;37253;48.736;9.294;2022-07-03T10:17:29;2.75;;;1.48;;
51190;SDS011;37253;48.736;9.294;2022-07-03T10:19:30;1.58;;;1.20;;
51190;SDS011;37253;48.736;9.294;2022-07-03T10:21:39;3.83;;;1.42;;
51190;SDS011;37253;48.736;9.294;2022-07-03T10:23:41;3.73;;;1.37;;
51190;SDS011;37253;48.736;9.294;2022-07-03T10:25:43;2.67;;;1.40;;
51190;SDS011;37253;48.736;9.294;2022-07-03T10:27:45;1.98;;;1.10;;
51190;SDS011;37253;48.736;9.294;2022-07-03T10:29:46;2.55;;;1.15;;
51190;SDS011;37253;48.736;9.294;2022-07-03T10:31:47;4.88;;;1.30;;
51190;SDS011;37253;48.736;9.294;2022-07-03T10:33:47;6.22;;;1.50;;
51190;SDS011;37253;48.736;9.294;2022-07-03T10:35:48;3.35;;;1.20;;
51190;SDS011;37253;48.736;9.294;2022-07-03T10:37:52;4.25;;;1.80;;
51190;SDS011;37253;48.736;9.294;2022-07-03T10:40:02;7.88;;;1.50;;
51190;SDS011;37253;48.736;9.294;2022-07-03T10:42:27;4.30;;;1.45;;
51190;SDS011;37253;48.736;9.294;2022-07-03T10:45:03;2.53;;;1.08;;
51190;SDS011;37253;48.736;9.294;2022-07-03T10:50:00;4.22;;;1.10;;
51190;SDS011;37253;48.736;9.294;2022-07-03T10:52:03;4.68;;;1.20;;
51190;SDS011;37253;48.736;9.294;2022-07-03T10:56:16;2.30;;;1.17;;
51190;SDS011;37253;48.736;9.294;2022-07-03T10:58:16;5.15;;;1.20;;
51190;SDS011;37253;48.736;9.294;2022-07-03T11:00:18;3.45;;;1.27;;
51190;SDS011;37253;48.736;9.294;2022-07-03T11:07:18;2.53;;;1.20;;
51190;SDS011;37253;48.736;9.294;2022-07-03T11:09:18;1.40;;;0.88;;
51190;SDS011;37253;48.736;9.294;2022-07-03T11:11:32;3.13;;;1.20;;
51190;SDS011;37253;48.736;9.294;2022-07-03T11:16:21;4.35;;;0.90;;
51190;SDS011;37253;48.736;9.294;2022-07-03T11:20:26;2.60;;;0.90;;
51190;SDS011;37253;48.736;9.294;2022-07-03T11:22:27;4.25;;;1.23;;
51190;SDS011;37253;48.736;9.294;2022-07-03T11:24:38;9.18;;;1.23;;
51190;SDS011;37253;48.736;9.294;2022-07-03T11:26:39;1.48;;;1.00;;
51190;SDS011;37253;48.736;9.294;2022-07-03T11:31:25;1.30;;;1.00;;
51190;SDS011;37253;48.736;9.294;2022-07-03T11:33:16;2.28;;;1.10;;
51190;SDS011;37253;48.736;9.294;2022-07-03T11:35:52;2.53;;;1.20;;
51190;SDS011;37253;48.736;9.294;2022-07-03T11:37:53;1.17;;;0.88;;
51190;SDS011;37253;48.736;9.294;2022-07-03T11:39:55;10.77;;;1.27;;
51190;SDS011;37253;48.736;9.294;2022-07-03T11:41:57;2.38;;;1.08;;
51190;SDS011;37253;48.736;9.294;2022-07-03T11:43:58;2.05;;;1.02;;
51190;SDS011;37253;48.736;9.294;2022-07-03T11:46:02;2.97;;;1.15;;
51190;SDS011;37253;48.736;9.294;2022-07-03T11:48:12;2.33;;;1.00;;
51190;SDS011;37253;48.736;9.294;2022-07-03T11:50:13;2.22;;;0.98;;
51190;SDS011;37253;48.736;9.294;2022-07-03T11:52:13;2.45;;;0.95;;
51190;SDS011;37253;48.736;9.294;2022-07-03T11:54:14;4.53;;;1.00;;
51190;SDS011;37253;48.736;9.294;2022-07-03T11:56:14;2.90;;;1.10;;
51190;SDS011;37253;48.736;9.294;2022-07-03T11:58:15;2.00;;;0.98;;
51190;SDS011;37253;48.736;9.294;2022-07-03T12:00:16;1.85;;;1.30;;
51190;SDS011;37253;48.736;9.294;2022-07-03T12:02:16;2.92;;;1.02;;
51190;SDS011;37253;48.736;9.294;2022-07-03T12:04:18;2.65;;;1.17;;
51190;SDS011;37253;48.736;9.294;2022-07-03T12:06:19;3.40;;;1.00;;
51190;SDS011;37253;48.736;9.294;2022-07-03T12:08:32;3.88;;;1.10;;
51190;SDS011;37253;48.736;9.294;2022-07-03T12:10:37;3.53;;;1.08;;
51190;SDS011;37253;48.736;9.294;2022-07-03T12:12:38;3.88;;;1.13;;
51190;SDS011;37253;48.736;9.294;2022-07-03T12:16:46;4.43;;;1.20;;
51190;SDS011;37253;48.736;9.294;2022-07-03T12:18:50;3.00;;;1.05;;
51190;SDS011;37253;48.736;9.294;2022-07-03T12:20:51;4.50;;;0.95;;
51190;SDS011;37253;48.736;9.294;2022-07-03T12:22:51;1.55;;;0.95;;
51190;SDS011;37253;48.736;9.294;2022-07-03T12:25:02;2.08;;;0.93;;
51190;SDS011;37253;48.736;9.294;2022-07-03T12:27:06;1.88;;;0.95;;
51190;SDS011;37253;48.736;9.294;2022-07-03T12:29:13;3.25;;;0.98;;
51190;SDS011;37253;48.736;9.294;2022-07-03T12:31:15;3.50;;;1.00;;
51190;SDS011;37253;48.736;9.294;2022-07-03T12:33:15;0.98;;;0.85;;
51190;SDS011;37253;48.736;9.294;2022-07-03T12:35:22;1.77;;;0.98;;
51190;SDS011;37253;48.736;9.294;2022-07-03T12:39:56;2.17;;;0.90;;
51190;SDS011;37253;48.736;9.294;2022-07-03T12:41:56;3.60;;;0.90;;
51190;SDS011;37253;48.736;9.294;2022-07-03T12:43:57;4.57;;;1.23;;
51190;SDS011;37253;48.736;9.294;2022-07-03T12:45:58;7.63;;;1.30;;
51190;SDS011;37253;48.736;9.294;2022-07-03T12:47:59;9.15;;;1.50;;
51190;SDS011;37253;48.736;9.294;2022-07-03T12:50:02;6.07;;;1.23;;
51190;SDS011;37253;48.736;9.294;2022-07-03T12:52:06;1.85;;;1.20;;
51190;SDS011;37253;48.736;9.294;2022-07-03T12:54:14;4.38;;;1.38;;
51190;SDS011;37253;48.736;9.294;2022-07-03T12:56:21;8.43;;;1.33;;
51190;SDS011;37253;48.736;9.294;2022-07-03T12:58:22;3.90;;;1.30;;
51190;SDS011;37253;48.736;9.294;2022-07-03T13:00:42;3.17;;;1.10;;
51190;SDS011;37253;48.736;9.294;2022-07-03T13:02:44;5.72;;;1.17;;
51190;SDS011;37253;48.736;9.294;2022-07-03T13:04:45;5.18;;;1.25;;
51190;SDS011;37253;48.736;9.294;2022-07-03T13:06:45;8.23;;;1.20;;
51190;SDS011;37253;48.736;9.294;2022-07-03T13:08:52;11.40;;;1.15;;
51190;SDS011;37253;48.736;9.294;2022-07-03T13:10:59;7.07;;;1.30;;
51190;SDS011;37253;48.736;9.294;2022-07-03T13:12:59;8.05;;;1.20;;